Adirondack Regional Airport

Airport
ICAO code: 
KSLK
Summary
ICAO Region: 
NAM
Territory: 
Location: 
Saranac Lake, New York,
Coordinates: 
Aerial View: 
44° 22' 51.329" N, 74° 12' 17.792" W
Airport CFIT: 
Altimeter Temperature Error Correction
Airport GND: 
Aircraft Ground De/Anti Icing
Airport RE: 
Landing on Contaminated Runways
Metar
Observation
KSLK 272051Z AUTO VRB06G16KT 10SM OVC027 M06/M09 A2974 RMK AO2 SLP095 T10561089 53001
Station
Saranac Lake, Adirondack Regional Airport
Date/Time
2021-11-27 20:51:00
Wind speed
06 kts
Lowest cloud amount
overcast
Temperature
-5.6°C
Dew point
-8.9°C
Humidity
77%
Weather condition
n/a

Description

Adirondack Regional Airport is a public use airport located 7 km northwest of the central business district of Saranac Lake, a town in Franklin County, New York.

Climatology

Humid Continental climate (Köppen climate classification Dfb) - Variable weather patterns and a large seasonal temperature variance. Summers are often warm and humid with frequent thunderstorms and winters can be very cold with frequent snowfall and persistent snow cover.

Runways

Designator Length Width Surface Rops
9/27 1219 30 ASP Yes/Yes
5/23 2003 46 ASP Yes/Yes
Airport map: 
Aerial View: 

SKYbrary Partners:

Safety knowledge contributed by: